Time;durP1;ratioP1;P1;durP2;ratioP2;P2;SDS_P1;SDS_P2;PMS_P1;PMS_P2;Temp;Humidity;BMP_temperature;BMP_pressure;BME280_temperature;BME280_humidity;BME280_pressure;Samples;Min_cycle;Max_cycle;Signal;HPM_P1;HPM_P2
2023/06/11 00:01:24;;;;;;;6.60;6.00;;;;;;;;;;4923848;29;20214;-81
2023/06/11 00:03:54;;;;;;;6.50;5.87;;;;;;;;;;4915259;29;20647;-80
2023/06/11 00:06:22;;;;;;;6.70;5.57;;;;;;;;;;4923178;29;20194;-77
2023/06/11 00:08:48;;;;;;;6.43;5.80;;;;;;;;;;4929807;29;20345;-77
2023/06/11 00:11:15;;;;;;;8.13;6.10;;;;;;;;;;4921184;29;20613;-78
2023/06/11 00:13:41;;;;;;;6.30;5.77;;;;;;;;;;4917315;29;20183;-80
2023/06/11 00:16:07;;;;;;;6.40;5.80;;;;;;;;;;4931722;29;20182;-80
2023/06/11 00:18:35;;;;;;;7.47;5.60;;;;;;;;;;4928466;29;20237;-77
2023/06/11 00:21:02;;;;;;;6.53;5.97;;;;;;;;;;4934606;29;20233;-78
2023/06/11 00:23:28;;;;;;;6.33;5.73;;;;;;;;;;4929583;29;20653;-78
2023/06/11 00:25:55;;;;;;;6.40;5.80;;;;;;;;;;4929716;29;20234;-77
2023/06/11 00:28:21;;;;;;;6.10;5.50;;;;;;;;;;4931099;29;20190;-78
2023/06/11 00:30:47;;;;;;;6.80;6.13;;;;;;;;;;4928983;29;20260;-78
2023/06/11 00:33:13;;;;;;;6.10;5.50;;;;;;;;;;4927500;29;20399;-78
2023/06/11 00:35:39;;;;;;;7.50;5.80;;;;;;;;;;4924029;29;20600;-78
2023/06/11 00:38:06;;;;;;;6.17;5.67;;;;;;;;;;4919436;29;20198;-78
2023/06/11 00:40:32;;;;;;;6.70;6.10;;;;;;;;;;4937342;29;20609;-78
2023/06/11 00:42:58;;;;;;;6.27;5.67;;;;;;;;;;4937536;29;20285;-78
2023/06/11 00:45:27;;;;;;;6.33;5.73;;;;;;;;;;4924521;29;20719;-78
2023/06/11 00:47:53;;;;;;;6.43;5.37;;;;;;;;;;4934683;29;20194;-78
2023/06/11 00:50:19;;;;;;;6.40;5.80;;;;;;;;;;4922690;29;20194;-78
2023/06/11 00:52:46;;;;;;;6.47;5.97;;;;;;;;;;4931438;29;20189;-78
2023/06/11 00:55:13;;;;;;;8.23;6.13;;;;;;;;;;4938061;29;20229;-78
2023/06/11 00:57:42;;;;;;;5.93;5.40;;;;;;;;;;4936143;29;20569;-78
2023/06/11 01:00:13;;;;;;;6.23;5.63;;;;;;;;;;4927592;29;20182;-78
2023/06/11 01:02:47;;;;;;;6.37;5.67;;;;;;;;;;4923889;29;20269;-78
2023/06/11 01:05:17;;;;;;;6.10;5.57;;;;;;;;;;4929061;29;20191;-78
2023/06/11 01:07:51;;;;;;;6.27;5.77;;;;;;;;;;4920505;29;20182;-78
2023/06/11 01:10:21;;;;;;;6.30;5.70;;;;;;;;;;4927814;29;20190;-78
2023/06/11 01:12:49;;;;;;;6.80;5.80;;;;;;;;;;4926041;29;20190;-78
2023/06/11 01:15:15;;;;;;;6.27;5.40;;;;;;;;;;4933961;29;20587;-78
2023/06/11 01:17:44;;;;;;;6.30;5.70;;;;;;;;;;4926406;29;20261;-78
2023/06/11 01:20:17;;;;;;;6.00;5.50;;;;;;;;;;4929121;29;20193;-78
2023/06/11 01:22:43;;;;;;;6.50;5.90;;;;;;;;;;4939028;29;20608;-78
2023/06/11 01:25:10;;;;;;;6.40;5.70;;;;;;;;;;4920790;29;20187;-78
2023/06/11 01:27:50;;;;;;;6.20;5.70;;;;;;;;;;4927516;29;20198;-78
2023/06/11 01:30:20;;;;;;;6.10;5.20;;;;;;;;;;4919089;29;20244;-78
2023/06/11 01:32:52;;;;;;;5.97;5.43;;;;;;;;;;4932580;29;20621;-78
2023/06/11 01:35:19;;;;;;;6.57;5.93;;;;;;;;;;4918251;29;20230;-78
2023/06/11 01:37:45;;;;;;;5.90;5.40;;;;;;;;;;4918875;29;20275;-78
2023/06/11 01:40:14;;;;;;;7.57;5.57;;;;;;;;;;4932327;29;20194;-78
2023/06/11 01:42:47;;;;;;;8.93;5.77;;;;;;;;;;4909038;29;20280;-78
2023/06/11 01:45:13;;;;;;;6.47;5.87;;;;;;;;;;4930220;29;20192;-78
2023/06/11 01:47:40;;;;;;;5.93;5.43;;;;;;;;;;4934295;29;20221;-78
2023/06/11 01:50:07;;;;;;;5.77;5.30;;;;;;;;;;4927923;29;20306;-78
2023/06/11 01:52:33;;;;;;;6.50;5.90;;;;;;;;;;4904900;29;20201;-78
2023/06/11 01:55:00;;;;;;;6.43;5.90;;;;;;;;;;4928818;29;20215;-78
2023/06/11 01:57:26;;;;;;;6.13;5.53;;;;;;;;;;4928049;29;20186;-78
2023/06/11 01:59:52;;;;;;;6.43;5.83;;;;;;;;;;4912581;29;20197;-78
2023/06/11 02:02:19;;;;;;;6.53;5.73;;;;;;;;;;4899827;29;20250;-78
2023/06/11 02:04:45;;;;;;;5.83;5.30;;;;;;;;;;4921216;29;20182;-78
2023/06/11 02:07:11;;;;;;;6.00;5.47;;;;;;;;;;4926083;29;20190;-78
2023/06/11 02:09:37;;;;;;;6.47;5.87;;;;;;;;;;4915043;29;20317;-78
2023/06/11 02:12:03;;;;;;;6.13;5.63;;;;;;;;;;4935144;29;20714;-78
2023/06/11 02:14:29;;;;;;;6.47;5.83;;;;;;;;;;4934556;29;20318;-78
2023/06/11 02:16:56;;;;;;;6.80;6.20;;;;;;;;;;4935748;29;20174;-78
2023/06/11 02:19:22;;;;;;;6.63;6.10;;;;;;;;;;4934439;29;20878;-78
2023/06/11 02:21:48;;;;;;;6.77;6.17;;;;;;;;;;4932479;29;20745;-78
2023/06/11 02:24:15;;;;;;;5.97;5.47;;;;;;;;;;4935433;29;20690;-78
2023/06/11 02:26:41;;;;;;;6.00;5.50;;;;;;;;;;4931480;29;20611;-78
2023/06/11 02:29:07;;;;;;;6.03;5.43;;;;;;;;;;4929492;29;20666;-78
2023/06/11 02:31:34;;;;;;;6.70;6.10;;;;;;;;;;4934214;29;20300;-78
2023/06/11 02:34:00;;;;;;;6.90;6.20;;;;;;;;;;4916010;29;20212;-78
2023/06/11 02:36:26;;;;;;;6.20;5.60;;;;;;;;;;4923897;29;20655;-78
2023/06/11 02:38:52;;;;;;;6.90;6.30;;;;;;;;;;4934844;29;20184;-78
2023/06/11 02:41:18;;;;;;;8.23;6.50;;;;;;;;;;4920224;29;20289;-77
2023/06/11 02:43:44;;;;;;;6.90;6.30;;;;;;;;;;4933427;29;20185;-78
2023/06/11 02:46:10;;;;;;;7.27;6.57;;;;;;;;;;4906771;29;20198;-78
2023/06/11 02:48:37;;;;;;;6.23;5.73;;;;;;;;;;4922001;29;20275;-78
2023/06/11 02:51:04;;;;;;;6.30;5.70;;;;;;;;;;4920695;29;20214;-78
2023/06/11 02:53:30;;;;;;;7.20;6.10;;;;;;;;;;4924811;29;20269;-78
2023/06/11 02:55:56;;;;;;;6.70;6.20;;;;;;;;;;4934671;29;20276;-78
2023/06/11 02:58:22;;;;;;;6.63;6.03;;;;;;;;;;4929879;29;20295;-78
2023/06/11 03:00:48;;;;;;;8.70;6.37;;;;;;;;;;4921420;29;20215;-78
2023/06/11 03:03:14;;;;;;;6.83;6.20;;;;;;;;;;4917700;29;20674;-78
2023/06/11 03:05:44;;;;;;;6.67;6.10;;;;;;;;;;4932310;29;20232;-78
2023/06/11 03:08:10;;;;;;;7.27;6.23;;;;;;;;;;4904507;29;20623;-78
2023/06/11 03:10:36;;;;;;;6.10;5.60;;;;;;;;;;4917969;29;20252;-78
2023/06/11 03:13:03;;;;;;;6.53;5.93;;;;;;;;;;4915071;29;20187;-78
2023/06/11 03:15:30;;;;;;;6.50;6.00;;;;;;;;;;4924080;29;20293;-78
2023/06/11 03:17:56;;;;;;;6.93;6.23;;;;;;;;;;4927734;29;20189;-78
2023/06/11 03:20:23;;;;;;;6.80;6.20;;;;;;;;;;4930073;29;20189;-78
2023/06/11 03:22:50;;;;;;;6.90;6.30;;;;;;;;;;4924175;29;20178;-78
2023/06/11 03:25:17;;;;;;;6.70;6.10;;;;;;;;;;4932899;29;20189;-78
2023/06/11 03:27:44;;;;;;;6.77;6.17;;;;;;;;;;4916344;29;20214;-78
2023/06/11 03:30:11;;;;;;;6.87;6.27;;;;;;;;;;4918451;29;20207;-78
2023/06/11 03:32:39;;;;;;;6.37;5.87;;;;;;;;;;4947184;28;20233;-78
2023/06/11 03:35:07;;;;;;;7.60;6.33;;;;;;;;;;4917811;29;20230;-78
2023/06/11 03:37:33;;;;;;;7.10;6.40;;;;;;;;;;4928239;29;20225;-78
2023/06/11 03:40:01;;;;;;;7.00;6.40;;;;;;;;;;4926524;29;20708;-78
2023/06/11 03:42:31;;;;;;;6.93;6.33;;;;;;;;;;4914140;29;20330;-78
2023/06/11 03:44:57;;;;;;;7.37;6.57;;;;;;;;;;4917861;29;20190;-78
2023/06/11 03:47:25;;;;;;;7.43;6.33;;;;;;;;;;4914200;29;20249;-78
2023/06/11 03:49:51;;;;;;;6.90;6.30;;;;;;;;;;4928424;29;20186;-78
2023/06/11 03:52:18;;;;;;;6.73;6.13;;;;;;;;;;4917506;29;20300;-78
2023/06/11 03:54:45;;;;;;;7.43;5.90;;;;;;;;;;4932474;29;20256;-78
2023/06/11 03:57:12;;;;;;;7.47;6.50;;;;;;;;;;4925296;29;20178;-78
2023/06/11 03:59:38;;;;;;;6.50;5.90;;;;;;;;;;4932718;29;20256;-78
2023/06/11 04:02:05;;;;;;;7.80;6.43;;;;;;;;;;4917037;29;20281;-78
2023/06/11 04:04:32;;;;;;;6.77;6.17;;;;;;;;;;4932997;29;20193;-78
2023/06/11 04:06:59;;;;;;;7.33;6.73;;;;;;;;;;4932759;29;20272;-78
2023/06/11 04:09:25;;;;;;;7.30;6.70;;;;;;;;;;4930869;29;20261;-78
2023/06/11 04:11:52;;;;;;;6.63;6.07;;;;;;;;;;4918942;29;20206;-78
2023/06/11 04:14:18;;;;;;;7.53;6.83;;;;;;;;;;4925220;29;20213;-78
2023/06/11 04:16:44;;;;;;;7.00;5.97;;;;;;;;;;4932602;29;20193;-78
2023/06/11 04:19:11;;;;;;;7.37;6.37;;;;;;;;;;4931094;29;20257;-78
2023/06/11 04:21:37;;;;;;;8.57;6.40;;;;;;;;;;4925697;29;20209;-78
2023/06/11 04:24:04;;;;;;;6.07;5.57;;;;;;;;;;4922489;29;20201;-78
2023/06/11 04:26:31;;;;;;;6.90;6.30;;;;;;;;;;4928750;29;20193;-78
2023/06/11 04:28:59;;;;;;;7.10;6.50;;;;;;;;;;4932139;29;20230;-78
2023/06/11 04:31:27;;;;;;;7.10;6.47;;;;;;;;;;4917356;29;20232;-78
2023/06/11 04:33:56;;;;;;;6.60;5.93;;;;;;;;;;4930080;29;20270;-78
2023/06/11 04:36:24;;;;;;;6.83;6.20;;;;;;;;;;4929160;29;20170;-78
2023/06/11 04:38:51;;;;;;;7.50;6.90;;;;;;;;;;4922512;29;20232;-78
2023/06/11 04:41:19;;;;;;;7.10;6.50;;;;;;;;;;4930098;29;20264;-78
2023/06/11 04:43:50;;;;;;;8.70;6.60;;;;;;;;;;4922507;29;20202;-78
2023/06/11 04:46:16;;;;;;;7.37;6.47;;;;;;;;;;4930015;29;20269;-78
2023/06/11 04:48:42;;;;;;;7.40;6.70;;;;;;;;;;4931228;29;20186;-78
2023/06/11 04:51:11;;;;;;;6.60;6.10;;;;;;;;;;4916291;29;20238;-78
2023/06/11 04:53:41;;;;;;;6.13;5.63;;;;;;;;;;4918934;29;20210;-78
2023/06/11 04:56:10;;;;;;;7.23;6.53;;;;;;;;;;4925160;29;20183;-78
2023/06/11 04:58:38;;;;;;;6.77;6.00;;;;;;;;;;4927771;29;20698;-78
2023/06/11 05:01:07;;;;;;;6.80;6.20;;;;;;;;;;4899418;29;20206;-78
2023/06/11 05:03:37;;;;;;;7.10;6.50;;;;;;;;;;4913920;29;20589;-78
2023/06/11 05:06:04;;;;;;;7.00;6.30;;;;;;;;;;4920904;29;20201;-78
2023/06/11 05:08:32;;;;;;;6.77;6.13;;;;;;;;;;4933569;29;20190;-78
2023/06/11 05:10:59;;;;;;;6.90;6.30;;;;;;;;;;4933889;29;20296;-78
2023/06/11 05:13:27;;;;;;;7.33;6.20;;;;;;;;;;4931939;29;20268;-78
2023/06/11 05:15:58;;;;;;;6.13;5.63;;;;;;;;;;4917278;29;20236;-78
2023/06/11 05:18:25;;;;;;;6.60;6.00;;;;;;;;;;4916335;29;20186;-78
2023/06/11 05:20:54;;;;;;;6.67;6.07;;;;;;;;;;4935702;29;20198;-78
2023/06/11 05:23:28;;;;;;;6.77;6.07;;;;;;;;;;4932880;29;20198;-78
2023/06/11 05:26:01;;;;;;;6.93;6.33;;;;;;;;;;4918900;29;20189;-78
2023/06/11 05:28:28;;;;;;;6.63;6.07;;;;;;;;;;4934647;29;20195;-78
2023/06/11 05:30:54;;;;;;;7.40;6.37;;;;;;;;;;4934608;29;20662;-77
2023/06/11 05:33:22;;;;;;;6.37;5.87;;;;;;;;;;4917613;29;20198;-78
2023/06/11 05:35:51;;;;;;;6.37;5.77;;;;;;;;;;4919088;29;20209;-78
2023/06/11 05:38:18;;;;;;;6.30;5.70;;;;;;;;;;4916677;29;20178;-78
2023/06/11 05:40:44;;;;;;;6.80;6.00;;;;;;;;;;4906827;29;20210;-78
2023/06/11 05:43:10;;;;;;;6.53;5.83;;;;;;;;;;4933688;29;20213;-78
2023/06/11 05:45:37;;;;;;;6.77;6.00;;;;;;;;;;4935062;29;20237;-78
2023/06/11 05:48:06;;;;;;;6.20;5.60;;;;;;;;;;4933479;29;20225;-78
2023/06/11 05:50:34;;;;;;;6.63;5.90;;;;;;;;;;4926941;29;20198;-78
2023/06/11 05:53:01;;;;;;;5.90;5.40;;;;;;;;;;4917155;29;20264;-78
2023/06/11 05:55:27;;;;;;;6.37;5.87;;;;;;;;;;4928113;29;20213;-78
2023/06/11 05:57:53;;;;;;;6.10;5.60;;;;;;;;;;4934885;29;20241;-78
2023/06/11 06:00:19;;;;;;;5.93;5.27;;;;;;;;;;4931450;29;20564;-78
2023/06/11 06:02:50;;;;;;;6.07;5.57;;;;;;;;;;4927208;29;20190;-78
2023/06/11 06:05:24;;;;;;;5.83;5.23;;;;;;;;;;4916048;29;20187;-78
2023/06/11 06:07:50;;;;;;;8.13;5.70;;;;;;;;;;4900536;29;20202;-78
2023/06/11 06:10:17;;;;;;;6.40;5.80;;;;;;;;;;4900304;29;20766;-78
2023/06/11 06:12:43;;;;;;;5.87;5.37;;;;;;;;;;4917181;29;20198;-78
2023/06/11 06:15:11;;;;;;;6.27;5.73;;;;;;;;;;4916097;29;20226;-78
2023/06/11 06:17:41;;;;;;;5.70;5.23;;;;;;;;;;4928028;29;20306;-78
2023/06/11 06:20:10;;;;;;;5.83;5.30;;;;;;;;;;4921180;29;20659;-78
2023/06/11 06:22:38;;;;;;;6.00;5.50;;;;;;;;;;4924859;29;20332;-78
2023/06/11 06:25:04;;;;;;;5.97;5.33;;;;;;;;;;4925116;29;20562;-78
2023/06/11 06:27:31;;;;;;;5.43;5.03;;;;;;;;;;4928834;29;20690;-78
2023/06/11 06:29:58;;;;;;;5.90;5.40;;;;;;;;;;4902136;29;20541;-78
2023/06/11 06:32:24;;;;;;;6.07;5.47;;;;;;;;;;4925074;29;20205;-78
2023/06/11 06:34:51;;;;;;;5.83;5.33;;;;;;;;;;4932109;29;20265;-78
2023/06/11 06:37:17;;;;;;;6.17;5.53;;;;;;;;;;4927135;29;20189;-78
2023/06/11 06:39:46;;;;;;;6.10;5.60;;;;;;;;;;4926352;29;20182;-78
2023/06/11 06:42:12;;;;;;;6.07;5.47;;;;;;;;;;4909194;29;20564;-78
2023/06/11 06:44:44;;;;;;;5.90;5.40;;;;;;;;;;4924215;29;20186;-78
2023/06/11 06:47:12;;;;;;;6.00;5.33;;;;;;;;;;4917964;29;20617;-78
2023/06/11 06:49:38;;;;;;;5.50;4.97;;;;;;;;;;4924712;29;20194;-78
2023/06/11 06:52:05;;;;;;;6.47;5.80;;;;;;;;;;4928043;29;20214;-78
2023/06/11 06:54:32;;;;;;;5.80;5.30;;;;;;;;;;4917490;29;20628;-78
2023/06/11 06:56:58;;;;;;;5.40;5.00;;;;;;;;;;4920434;29;20190;-78
2023/06/11 06:59:25;;;;;;;6.37;4.80;;;;;;;;;;4930887;29;20587;-78
2023/06/11 07:01:52;;;;;;;5.37;4.87;;;;;;;;;;4917935;29;20210;-78
2023/06/11 07:04:18;;;;;;;6.10;5.60;;;;;;;;;;4930399;29;20186;-78
2023/06/11 07:06:45;;;;;;;6.57;5.97;;;;;;;;;;4933073;29;20272;-78
2023/06/11 07:09:11;;;;;;;6.13;5.53;;;;;;;;;;4928080;29;20249;-78
2023/06/11 07:11:38;;;;;;;5.63;5.00;;;;;;;;;;4916215;29;20226;-78
2023/06/11 07:14:05;;;;;;;5.67;5.00;;;;;;;;;;4913344;29;20213;-78
2023/06/11 07:16:32;;;;;;;5.27;4.77;;;;;;;;;;4925674;29;20655;-78
2023/06/11 07:19:01;;;;;;;5.50;5.00;;;;;;;;;;4927787;29;20264;-78
2023/06/11 07:21:28;;;;;;;5.73;5.23;;;;;;;;;;4921139;29;20207;-78
2023/06/11 07:23:54;;;;;;;5.90;5.40;;;;;;;;;;4911027;29;20608;-78
2023/06/11 07:26:20;;;;;;;5.97;5.37;;;;;;;;;;4920617;29;20197;-78
2023/06/11 07:28:47;;;;;;;5.90;5.30;;;;;;;;;;4888532;29;20659;-78
2023/06/11 07:31:13;;;;;;;6.77;5.50;;;;;;;;;;4930060;29;20218;-78
2023/06/11 07:33:42;;;;;;;5.50;5.00;;;;;;;;;;4932164;29;20186;-78
2023/06/11 07:36:08;;;;;;;6.27;5.30;;;;;;;;;;4926367;29;20236;-78
2023/06/11 07:38:35;;;;;;;5.30;4.80;;;;;;;;;;4917066;29;20181;-78
2023/06/11 07:41:01;;;;;;;5.20;4.80;;;;;;;;;;4921024;29;20212;-78
2023/06/11 07:43:28;;;;;;;5.63;5.13;;;;;;;;;;4933180;29;20264;-78
2023/06/11 07:45:54;;;;;;;5.73;5.23;;;;;;;;;;4917542;29;20602;-78
2023/06/11 07:48:20;;;;;;;5.80;4.77;;;;;;;;;;4917317;29;20177;-78
2023/06/11 07:50:49;;;;;;;5.40;5.00;;;;;;;;;;4933287;29;20205;-78
2023/06/11 07:53:19;;;;;;;6.10;5.50;;;;;;;;;;4933442;29;20182;-78
2023/06/11 07:55:50;;;;;;;7.80;5.60;;;;;;;;;;4929132;29;20257;-78
2023/06/11 07:58:18;;;;;;;5.93;5.40;;;;;;;;;;4933621;29;20271;-78
2023/06/11 08:00:44;;;;;;;6.83;5.93;;;;;;;;;;4933706;29;20280;-77
2023/06/11 08:03:11;;;;;;;5.77;5.23;;;;;;;;;;4934147;29;20187;-78
2023/06/11 08:05:37;;;;;;;12.23;6.20;;;;;;;;;;4934409;29;20681;-78
2023/06/11 08:08:04;;;;;;;5.90;5.40;;;;;;;;;;4927004;29;20198;-78
2023/06/11 08:10:31;;;;;;;5.93;5.33;;;;;;;;;;4932837;29;20695;-78
2023/06/11 08:12:58;;;;;;;5.97;5.20;;;;;;;;;;4921002;29;20717;-78
2023/06/11 08:15:24;;;;;;;6.33;5.73;;;;;;;;;;4930460;29;20221;-78
2023/06/11 08:17:50;;;;;;;6.73;5.43;;;;;;;;;;4930329;29;20559;-78
2023/06/11 08:20:16;;;;;;;7.97;6.10;;;;;;;;;;4921967;29;20186;-78
2023/06/11 08:22:43;;;;;;;5.70;5.20;;;;;;;;;;4902518;29;20263;-78
2023/06/11 08:25:09;;;;;;;8.03;5.73;;;;;;;;;;4931098;29;20665;-78
2023/06/11 08:27:36;;;;;;;6.10;5.50;;;;;;;;;;4916326;29;20187;-78
2023/06/11 08:30:02;;;;;;;7.70;5.73;;;;;;;;;;4929735;29;20217;-78
2023/06/11 08:32:28;;;;;;;6.13;5.20;;;;;;;;;;4929730;29;21921;-78
2023/06/11 08:34:54;;;;;;;6.47;5.50;;;;;;;;;;4924721;29;20742;-78
2023/06/11 08:37:21;;;;;;;6.40;5.70;;;;;;;;;;4922981;29;20275;-78
2023/06/11 08:39:47;;;;;;;6.37;5.77;;;;;;;;;;4925797;29;20679;-78
2023/06/11 08:42:13;;;;;;;5.63;5.13;;;;;;;;;;4924955;29;20208;-78
2023/06/11 08:44:40;;;;;;;7.10;5.57;;;;;;;;;;4935805;29;20186;-78
2023/06/11 08:47:09;;;;;;;8.27;5.53;;;;;;;;;;4922739;29;20203;-78
2023/06/11 08:49:39;;;;;;;5.70;5.20;;;;;;;;;;4931620;29;20605;-79
2023/06/11 08:52:06;;;;;;;6.33;5.73;;;;;;;;;;4922014;29;21881;-78
2023/06/11 08:54:32;;;;;;;6.17;4.80;;;;;;;;;;4929742;29;20230;-79
2023/06/11 08:56:59;;;;;;;7.93;5.57;;;;;;;;;;4928194;29;20200;-78
2023/06/11 08:59:25;;;;;;;7.33;5.53;;;;;;;;;;4935522;29;20578;-78
2023/06/11 09:01:52;;;;;;;5.43;4.93;;;;;;;;;;4933987;29;20321;-78
2023/06/11 09:04:19;;;;;;;5.70;5.10;;;;;;;;;;4931529;29;20229;-78
2023/06/11 09:06:58;;;;;;;6.27;5.20;;;;;;;;;;4928518;29;20662;-78
2023/06/11 09:09:24;;;;;;;6.73;4.90;;;;;;;;;;4934341;29;20189;-78
2023/06/11 09:11:50;;;;;;;6.80;5.10;;;;;;;;;;4932733;29;20198;-78
2023/06/11 09:14:16;;;;;;;6.80;4.67;;;;;;;;;;4934921;29;20224;-78
2023/06/11 09:16:43;;;;;;;6.33;4.60;;;;;;;;;;4930493;29;20192;-79
2023/06/11 09:19:14;;;;;;;8.07;5.23;;;;;;;;;;4936045;29;20209;-78
2023/06/11 09:21:49;;;;;;;5.00;4.50;;;;;;;;;;4927465;29;20204;-79
2023/06/11 09:24:17;;;;;;;5.17;4.77;;;;;;;;;;4933978;29;20276;-78
2023/06/11 09:26:53;;;;;;;8.43;4.90;;;;;;;;;;4928577;29;20604;-78
2023/06/11 09:29:20;;;;;;;5.60;4.90;;;;;;;;;;4936425;29;20201;-78
2023/06/11 09:31:46;;;;;;;5.30;4.60;;;;;;;;;;4936592;29;20217;-78
2023/06/11 09:34:16;;;;;;;5.63;5.07;;;;;;;;;;4935112;29;20261;-79
2023/06/11 09:36:46;;;;;;;5.30;4.80;;;;;;;;;;4936940;29;20178;-79
2023/06/11 09:39:13;;;;;;;6.60;5.20;;;;;;;;;;4935630;29;20181;-79
2023/06/11 09:41:52;;;;;;;5.70;5.10;;;;;;;;;;4936932;29;20265;-78
2023/06/11 09:44:18;;;;;;;6.00;4.73;;;;;;;;;;4926540;29;20190;-79
2023/06/11 09:46:45;;;;;;;6.73;4.63;;;;;;;;;;4926390;29;20193;-78
2023/06/11 09:49:12;;;;;;;6.77;5.13;;;;;;;;;;4936389;29;20541;-78
2023/06/11 09:51:39;;;;;;;6.70;5.23;;;;;;;;;;4939282;29;20210;-79
2023/06/11 09:54:08;;;;;;;8.60;4.77;;;;;;;;;;4926981;29;20197;-79
2023/06/11 09:56:35;;;;;;;7.10;5.03;;;;;;;;;;4928713;29;20174;-78
2023/06/11 09:59:05;;;;;;;5.60;4.97;;;;;;;;;;4927597;29;20663;-78
2023/06/11 10:01:33;;;;;;;5.27;4.83;;;;;;;;;;4918977;29;20197;-78
2023/06/11 10:03:59;;;;;;;8.43;4.93;;;;;;;;;;4921598;29;21068;-78
2023/06/11 10:06:33;;;;;;;5.17;4.67;;;;;;;;;;4937472;28;20229;-78
2023/06/11 10:09:01;;;;;;;5.83;5.17;;;;;;;;;;4937724;29;20182;-80
2023/06/11 10:11:30;;;;;;;6.07;4.97;;;;;;;;;;4931174;29;20210;-80
2023/06/11 10:13:58;;;;;;;6.13;4.77;;;;;;;;;;4939453;29;20211;-79
2023/06/11 10:16:24;;;;;;;5.23;4.73;;;;;;;;;;4937740;29;20197;-79
2023/06/11 10:18:51;;;;;;;5.27;4.87;;;;;;;;;;4926071;29;20190;-80
2023/06/11 10:21:18;;;;;;;7.83;5.20;;;;;;;;;;4936020;29;20210;-79
2023/06/11 10:23:50;;;;;;;5.30;4.80;;;;;;;;;;4937604;29;20277;-79
2023/06/11 10:26:17;;;;;;;9.93;5.17;;;;;;;;;;4930586;29;20209;-80
2023/06/11 10:28:51;;;;;;;6.07;5.57;;;;;;;;;;4919351;29;20273;-80
2023/06/11 10:31:26;;;;;;;6.43;5.00;;;;;;;;;;4930102;29;20233;-80
2023/06/11 10:33:52;;;;;;;5.70;4.80;;;;;;;;;;4926314;29;20349;-80
2023/06/11 10:36:22;;;;;;;5.40;4.90;;;;;;;;;;4929593;29;20191;-80
2023/06/11 10:38:48;;;;;;;6.77;4.90;;;;;;;;;;4933285;29;20190;-79
2023/06/11 10:41:14;;;;;;;5.50;5.00;;;;;;;;;;4935600;29;20213;-80
2023/06/11 10:43:40;;;;;;;5.60;5.07;;;;;;;;;;4937465;29;20190;-79
2023/06/11 10:46:11;;;;;;;5.03;4.50;;;;;;;;;;4936223;29;20225;-79
2023/06/11 10:48:37;;;;;;;6.80;4.67;;;;;;;;;;4935599;29;20174;-80
2023/06/11 10:51:07;;;;;;;7.53;5.43;;;;;;;;;;4934939;29;20208;-78
2023/06/11 10:53:38;;;;;;;6.00;5.13;;;;;;;;;;4935155;29;20178;-84
2023/06/11 10:56:04;;;;;;;6.00;5.17;;;;;;;;;;4916514;29;20236;-80
2023/06/11 10:58:31;;;;;;;5.77;5.13;;;;;;;;;;4933143;29;20178;-78
2023/06/11 11:00:58;;;;;;;5.83;4.80;;;;;;;;;;4930074;29;20207;-77
2023/06/11 11:03:26;;;;;;;5.67;5.17;;;;;;;;;;4935402;29;20243;-80
2023/06/11 11:05:53;;;;;;;6.30;5.70;;;;;;;;;;4935777;29;20218;-82
2023/06/11 11:08:20;;;;;;;6.63;5.30;;;;;;;;;;4933584;29;20202;-84
2023/06/11 11:10:46;;;;;;;5.90;5.10;;;;;;;;;;4898642;29;20214;-81
2023/06/11 11:13:12;;;;;;;6.60;5.60;;;;;;;;;;4935422;29;20234;-81
2023/06/11 11:15:41;;;;;;;5.87;5.27;;;;;;;;;;4936432;29;20829;-82
2023/06/11 11:18:08;;;;;;;5.60;5.10;;;;;;;;;;4935163;29;20192;-83
2023/06/11 11:20:34;;;;;;;5.60;4.97;;;;;;;;;;4930907;29;20210;-84
2023/06/11 11:23:00;;;;;;;7.23;5.13;;;;;;;;;;4933664;28;20194;-83
2023/06/11 11:25:29;;;;;;;5.90;5.30;;;;;;;;;;4931976;29;20192;-80
2023/06/11 11:27:57;;;;;;;5.83;5.00;;;;;;;;;;4936937;29;20693;-87
2023/06/11 11:30:24;;;;;;;4.97;4.57;;;;;;;;;;4913645;29;20207;-84
2023/06/11 11:32:52;;;;;;;5.43;4.93;;;;;;;;;;4900119;29;20600;-86
2023/06/11 11:35:18;;;;;;;5.87;5.27;;;;;;;;;;4931331;29;20239;-86
2023/06/11 11:37:51;;;;;;;5.40;4.90;;;;;;;;;;4934170;29;20223;-88
2023/06/11 11:40:21;;;;;;;5.33;4.80;;;;;;;;;;4902748;29;20194;-82
2023/06/11 11:42:51;;;;;;;7.70;5.10;;;;;;;;;;4935580;29;20186;-82
2023/06/11 11:45:17;;;;;;;7.67;4.50;;;;;;;;;;4933404;29;20187;-86
2023/06/11 11:47:51;;;;;;;7.63;4.60;;;;;;;;;;4924759;29;20186;-83
2023/06/11 11:50:22;;;;;;;5.53;4.60;;;;;;;;;;4918102;29;20202;-84
2023/06/11 11:53:04;;;;;;;6.00;4.67;;;;;;;;;;4939266;29;20202;-86
2023/06/11 11:55:32;;;;;;;5.93;4.30;;;;;;;;;;4918939;29;20640;-88
2023/06/11 11:58:09;;;;;;;4.90;4.50;;;;;;;;;;4948061;29;20188;-83
2023/06/11 12:00:37;;;;;;;5.53;4.70;;;;;;;;;;4946657;28;20220;-82
2023/06/11 12:03:10;;;;;;;5.20;4.70;;;;;;;;;;4923730;29;20597;-80
2023/06/11 12:05:36;;;;;;;5.20;4.70;;;;;;;;;;4933301;29;20654;-85
2023/06/11 12:08:03;;;;;;;6.30;4.70;;;;;;;;;;4934194;29;20261;-87
2023/06/11 12:10:30;;;;;;;5.47;4.97;;;;;;;;;;4901229;29;20670;-81
2023/06/11 12:12:56;;;;;;;5.50;5.00;;;;;;;;;;4910070;29;20189;-81
2023/06/11 12:15:22;;;;;;;5.20;4.70;;;;;;;;;;4939077;29;20219;-87
2023/06/11 12:17:48;;;;;;;5.17;4.67;;;;;;;;;;4940543;28;20179;-85
2023/06/11 12:20:14;;;;;;;5.10;4.60;;;;;;;;;;4908439;29;20187;-84
2023/06/11 12:22:40;;;;;;;5.23;4.83;;;;;;;;;;4929345;29;20194;-85
2023/06/11 12:25:07;;;;;;;5.53;4.67;;;;;;;;;;4914552;29;20598;-83
2023/06/11 12:27:33;;;;;;;5.63;5.00;;;;;;;;;;4914051;29;20247;-83
2023/06/11 12:30:00;;;;;;;5.53;4.80;;;;;;;;;;4897455;29;20320;-83
2023/06/11 12:32:27;;;;;;;6.30;4.80;;;;;;;;;;4914491;29;20203;-83
2023/06/11 12:34:53;;;;;;;6.67;4.80;;;;;;;;;;4914733;29;20214;-83
2023/06/11 12:37:20;;;;;;;4.90;4.40;;;;;;;;;;4899079;29;20195;-84
2023/06/11 12:39:46;;;;;;;5.13;4.50;;;;;;;;;;4915795;29;20260;-84
2023/06/11 12:42:16;;;;;;;5.23;4.73;;;;;;;;;;4914979;29;20295;-82
2023/06/11 12:44:45;;;;;;;5.27;4.80;;;;;;;;;;4914844;29;20192;-84
2023/06/11 12:47:11;;;;;;;5.23;4.73;;;;;;;;;;4914845;29;20193;-84
2023/06/11 12:49:38;;;;;;;5.83;5.23;;;;;;;;;;4916699;29;20655;-84
2023/06/11 12:52:04;;;;;;;5.70;5.20;;;;;;;;;;4917056;29;20230;-84
2023/06/11 12:54:30;;;;;;;6.03;4.77;;;;;;;;;;4916715;29;20222;-83
2023/06/11 12:56:57;;;;;;;5.50;5.00;;;;;;;;;;4917089;29;20181;-83
2023/06/11 12:59:23;;;;;;;5.17;4.67;;;;;;;;;;4916379;29;20565;-83
2023/06/11 13:01:50;;;;;;;6.47;5.03;;;;;;;;;;4901025;29;20209;-84
2023/06/11 13:04:16;;;;;;;4.67;4.27;;;;;;;;;;4917070;29;20664;-84
2023/06/11 13:06:43;;;;;;;5.00;4.47;;;;;;;;;;4916306;29;20192;-84
2023/06/11 13:09:09;;;;;;;5.17;4.67;;;;;;;;;;4900144;29;20704;-83
2023/06/11 13:11:36;;;;;;;5.00;4.53;;;;;;;;;;4916609;29;20209;-84
2023/06/11 13:14:02;;;;;;;5.47;4.83;;;;;;;;;;4915854;29;20219;-84
2023/06/11 13:16:30;;;;;;;5.30;4.80;;;;;;;;;;4900086;29;20205;-84
2023/06/11 13:18:59;;;;;;;5.13;4.73;;;;;;;;;;4915968;29;20659;-84
2023/06/11 13:21:26;;;;;;;5.03;4.67;;;;;;;;;;4916595;29;20198;-84
2023/06/11 13:23:53;;;;;;;5.57;4.80;;;;;;;;;;4914988;29;20183;-84
2023/06/11 13:26:19;;;;;;;5.10;4.67;;;;;;;;;;4914980;29;20195;-84
2023/06/11 13:28:45;;;;;;;5.13;4.70;;;;;;;;;;4902480;29;20187;-84
2023/06/11 13:31:11;;;;;;;5.60;5.13;;;;;;;;;;4918354;29;20224;-84
2023/06/11 13:33:38;;;;;;;8.97;5.47;;;;;;;;;;4922874;29;20185;-84
2023/06/11 13:36:04;;;;;;;5.23;4.73;;;;;;;;;;4924670;29;20625;-83
2023/06/11 13:38:30;;;;;;;4.43;4.00;;;;;;;;;;4924337;29;20203;-84
2023/06/11 13:40:56;;;;;;;5.00;4.60;;;;;;;;;;4924925;29;20229;-84
2023/06/11 13:43:22;;;;;;;5.00;4.40;;;;;;;;;;4925539;29;20181;-84
2023/06/11 13:45:49;;;;;;;4.60;4.18;;;;;;;;;;4925958;29;20220;-84
2023/06/11 13:48:18;;;;;;;6.78;5.07;;;;;;;;;;4923847;29;20187;-84
2023/06/11 13:50:46;;;;;;;6.45;4.20;;;;;;;;;;4922322;29;20242;-85
2023/06/11 13:53:13;;;;;;;5.45;4.40;;;;;;;;;;4920417;29;20191;-84
2023/06/11 13:55:39;;;;;;;4.72;3.95;;;;;;;;;;4920273;29;20213;-84
2023/06/11 13:58:05;;;;;;;6.50;4.57;;;;;;;;;;4920712;29;20214;-85
2023/06/11 14:00:31;;;;;;;4.97;4.30;;;;;;;;;;4921801;29;20183;-84
2023/06/11 14:02:58;;;;;;;4.95;4.60;;;;;;;;;;4919036;29;20190;-85
2023/06/11 14:05:25;;;;;;;5.32;4.05;;;;;;;;;;4920187;29;20258;-85
2023/06/11 14:07:52;;;;;;;5.20;4.32;;;;;;;;;;4919474;29;20250;-84
2023/06/11 14:10:22;;;;;;;4.20;3.90;;;;;;;;;;4919020;29;20709;-83
2023/06/11 14:12:48;;;;;;;4.40;4.00;;;;;;;;;;4919544;29;20587;-84
2023/06/11 14:15:19;;;;;;;4.93;4.40;;;;;;;;;;4918721;29;20223;-85
2023/06/11 14:17:46;;;;;;;5.78;3.92;;;;;;;;;;4917344;29;20223;-85
2023/06/11 14:20:12;;;;;;;4.45;4.05;;;;;;;;;;4917672;29;20222;-84
2023/06/11 14:22:39;;;;;;;4.78;4.07;;;;;;;;;;4916951;29;20221;-85
2023/06/11 14:25:05;;;;;;;4.15;3.83;;;;;;;;;;4917960;29;20268;-84
2023/06/11 14:27:32;;;;;;;4.43;4.03;;;;;;;;;;4916927;29;20195;-84
2023/06/11 14:29:59;;;;;;;3.88;3.58;;;;;;;;;;4916849;29;20202;-85
2023/06/11 14:32:28;;;;;;;4.40;4.00;;;;;;;;;;4901886;29;20304;-85
2023/06/11 14:34:55;;;;;;;4.10;3.80;;;;;;;;;;4902407;29;20698;-85
2023/06/11 14:37:21;;;;;;;4.03;3.72;;;;;;;;;;4919379;29;20322;-84
2023/06/11 14:39:47;;;;;;;4.95;4.15;;;;;;;;;;4915511;29;20263;-85
2023/06/11 14:42:14;;;;;;;4.45;3.90;;;;;;;;;;4917286;29;20679;-85
2023/06/11 14:44:40;;;;;;;4.45;4.10;;;;;;;;;;4917392;29;20190;-85